sensor_id;sensor_type;location;lat;lon;timestamp;P1;durP1;ratioP1;P2;durP2;ratioP2
24617;SDS011;12762;51.730;5.356;2022-09-23T00:01:34;11.63;;;7.23;;
24617;SDS011;12762;51.730;5.356;2022-09-23T00:04:01;16.37;;;8.93;;
24617;SDS011;12762;51.730;5.356;2022-09-23T00:06:30;10.63;;;7.93;;
24617;SDS011;12762;51.730;5.356;2022-09-23T00:08:57;13.53;;;7.37;;
24617;SDS011;12762;51.730;5.356;2022-09-23T00:11:25;10.63;;;6.80;;
24617;SDS011;12762;51.730;5.356;2022-09-23T00:13:55;10.97;;;6.43;;
24617;SDS011;12762;51.730;5.356;2022-09-23T00:16:25;17.03;;;10.03;;
24617;SDS011;12762;51.730;5.356;2022-09-23T00:18:53;11.93;;;7.20;;
24617;SDS011;12762;51.730;5.356;2022-09-23T00:21:21;10.50;;;8.10;;
24617;SDS011;12762;51.730;5.356;2022-09-23T00:23:48;14.80;;;8.70;;
24617;SDS011;12762;51.730;5.356;2022-09-23T00:26:15;13.80;;;8.13;;
24617;SDS011;12762;51.730;5.356;2022-09-23T00:28:44;11.67;;;8.23;;
24617;SDS011;12762;51.730;5.356;2022-09-23T00:31:15;11.77;;;7.17;;
24617;SDS011;12762;51.730;5.356;2022-09-23T00:33:45;10.30;;;7.70;;
24617;SDS011;12762;51.730;5.356;2022-09-23T00:36:13;12.53;;;8.07;;
24617;SDS011;12762;51.730;5.356;2022-09-23T00:38:41;12.03;;;8.77;;
24617;SDS011;12762;51.730;5.356;2022-09-23T00:41:09;12.50;;;7.67;;
24617;SDS011;12762;51.730;5.356;2022-09-23T00:43:42;15.87;;;8.97;;
24617;SDS011;12762;51.730;5.356;2022-09-23T00:48:58;13.23;;;9.13;;
24617;SDS011;12762;51.730;5.356;2022-09-23T00:51:32;12.43;;;8.77;;
24617;SDS011;12762;51.730;5.356;2022-09-23T00:54:03;10.60;;;7.07;;
24617;SDS011;12762;51.730;5.356;2022-09-23T00:56:31;11.30;;;7.27;;
24617;SDS011;12762;51.730;5.356;2022-09-23T00:59:00;15.60;;;9.17;;
24617;SDS011;12762;51.730;5.356;2022-09-23T01:01:27;10.90;;;8.00;;
24617;SDS011;12762;51.730;5.356;2022-09-23T01:03:57;11.50;;;8.33;;
24617;SDS011;12762;51.730;5.356;2022-09-23T01:06:27;14.73;;;10.00;;
24617;SDS011;12762;51.730;5.356;2022-09-23T01:08:54;13.60;;;9.20;;
24617;SDS011;12762;51.730;5.356;2022-09-23T01:30:32;13.00;;;8.20;;
24617;SDS011;12762;51.730;5.356;2022-09-23T01:35:42;17.83;;;9.30;;
24617;SDS011;12762;51.730;5.356;2022-09-23T01:38:18;10.80;;;7.23;;
24617;SDS011;12762;51.730;5.356;2022-09-23T01:43:46;13.43;;;9.17;;
24617;SDS011;12762;51.730;5.356;2022-09-23T01:46:31;15.47;;;10.13;;
24617;SDS011;12762;51.730;5.356;2022-09-23T01:49:10;14.87;;;10.53;;
24617;SDS011;12762;51.730;5.356;2022-09-23T01:51:46;13.03;;;9.20;;
24617;SDS011;12762;51.730;5.356;2022-09-23T01:57:02;15.13;;;9.77;;
24617;SDS011;12762;51.730;5.356;2022-09-23T01:59:37;11.63;;;8.53;;
24617;SDS011;12762;51.730;5.356;2022-09-23T02:02:12;15.47;;;10.20;;
24617;SDS011;12762;51.730;5.356;2022-09-23T02:04:47;15.90;;;9.27;;
24617;SDS011;12762;51.730;5.356;2022-09-23T02:07:21;15.37;;;10.43;;
24617;SDS011;12762;51.730;5.356;2022-09-23T02:09:56;15.67;;;10.17;;
24617;SDS011;12762;51.730;5.356;2022-09-23T02:12:36;12.87;;;9.70;;
24617;SDS011;12762;51.730;5.356;2022-09-23T02:15:15;17.03;;;11.53;;
24617;SDS011;12762;51.730;5.356;2022-09-23T02:17:54;16.50;;;10.87;;
24617;SDS011;12762;51.730;5.356;2022-09-23T02:20:32;14.93;;;10.10;;
24617;SDS011;12762;51.730;5.356;2022-09-23T02:23:09;16.13;;;11.23;;
24617;SDS011;12762;51.730;5.356;2022-09-23T02:25:40;16.37;;;11.10;;
24617;SDS011;12762;51.730;5.356;2022-09-23T02:28:17;13.30;;;9.33;;
24617;SDS011;12762;51.730;5.356;2022-09-23T02:31:03;16.17;;;10.10;;
24617;SDS011;12762;51.730;5.356;2022-09-23T02:33:42;12.10;;;9.00;;
24617;SDS011;12762;51.730;5.356;2022-09-23T02:36:31;16.27;;;9.03;;
24617;SDS011;12762;51.730;5.356;2022-09-23T02:39:15;11.43;;;8.37;;
24617;SDS011;12762;51.730;5.356;2022-09-23T02:41:57;19.13;;;9.73;;
24617;SDS011;12762;51.730;5.356;2022-09-23T02:44:30;14.90;;;10.27;;
24617;SDS011;12762;51.730;5.356;2022-09-23T02:46:58;16.80;;;10.90;;
24617;SDS011;12762;51.730;5.356;2022-09-23T02:49:26;10.47;;;7.80;;
24617;SDS011;12762;51.730;5.356;2022-09-23T02:51:55;16.67;;;10.40;;
24617;SDS011;12762;51.730;5.356;2022-09-23T02:54:26;14.87;;;8.43;;
24617;SDS011;12762;51.730;5.356;2022-09-23T02:56:54;13.27;;;8.00;;
24617;SDS011;12762;51.730;5.356;2022-09-23T02:59:22;14.67;;;10.07;;
24617;SDS011;12762;51.730;5.356;2022-09-23T03:01:52;13.17;;;9.60;;
24617;SDS011;12762;51.730;5.356;2022-09-23T03:05:03;15.17;;;9.80;;
24617;SDS011;12762;51.730;5.356;2022-09-23T03:07:48;13.83;;;9.60;;
24617;SDS011;12762;51.730;5.356;2022-09-23T03:13:19;14.93;;;10.33;;
24617;SDS011;12762;51.730;5.356;2022-09-23T03:16:18;14.83;;;10.47;;
24617;SDS011;12762;51.730;5.356;2022-09-23T03:18:58;14.43;;;10.60;;
24617;SDS011;12762;51.730;5.356;2022-09-23T03:24:22;18.57;;;10.20;;
24617;SDS011;12762;51.730;5.356;2022-09-23T03:26:50;15.87;;;10.70;;
24617;SDS011;12762;51.730;5.356;2022-09-23T03:29:19;15.33;;;10.43;;
24617;SDS011;12762;51.730;5.356;2022-09-23T03:31:47;18.00;;;10.63;;
24617;SDS011;12762;51.730;5.356;2022-09-23T03:34:17;14.43;;;10.37;;
24617;SDS011;12762;51.730;5.356;2022-09-23T03:36:57;15.70;;;10.87;;
24617;SDS011;12762;51.730;5.356;2022-09-23T03:39:34;14.07;;;10.70;;
24617;SDS011;12762;51.730;5.356;2022-09-23T03:42:07;16.17;;;10.43;;
24617;SDS011;12762;51.730;5.356;2022-09-23T03:44:43;18.10;;;10.57;;
24617;SDS011;12762;51.730;5.356;2022-09-23T03:47:11;13.13;;;10.07;;
24617;SDS011;12762;51.730;5.356;2022-09-23T03:49:40;16.03;;;10.70;;
24617;SDS011;12762;51.730;5.356;2022-09-23T03:52:09;16.40;;;11.07;;
24617;SDS011;12762;51.730;5.356;2022-09-23T03:54:36;17.00;;;10.60;;
24617;SDS011;12762;51.730;5.356;2022-09-23T03:57:03;15.13;;;10.37;;
24617;SDS011;12762;51.730;5.356;2022-09-23T03:59:30;16.70;;;10.17;;
24617;SDS011;12762;51.730;5.356;2022-09-23T04:01:57;12.93;;;9.43;;
24617;SDS011;12762;51.730;5.356;2022-09-23T04:04:25;14.33;;;10.37;;
24617;SDS011;12762;51.730;5.356;2022-09-23T04:06:57;19.97;;;11.57;;
24617;SDS011;12762;51.730;5.356;2022-09-23T04:09:24;15.03;;;10.20;;
24617;SDS011;12762;51.730;5.356;2022-09-23T04:11:51;14.40;;;10.63;;
24617;SDS011;12762;51.730;5.356;2022-09-23T04:14:19;14.77;;;10.50;;
24617;SDS011;12762;51.730;5.356;2022-09-23T04:16:47;14.27;;;9.93;;
24617;SDS011;12762;51.730;5.356;2022-09-23T04:19:14;18.53;;;10.63;;
24617;SDS011;12762;51.730;5.356;2022-09-23T04:21:42;16.43;;;10.70;;
24617;SDS011;12762;51.730;5.356;2022-09-23T04:24:12;17.77;;;11.03;;
24617;SDS011;12762;51.730;5.356;2022-09-23T04:26:40;16.10;;;11.00;;
24617;SDS011;12762;51.730;5.356;2022-09-23T04:29:09;17.57;;;10.60;;
24617;SDS011;12762;51.730;5.356;2022-09-23T04:31:36;15.30;;;10.27;;
24617;SDS011;12762;51.730;5.356;2022-09-23T04:34:03;16.17;;;10.27;;
24617;SDS011;12762;51.730;5.356;2022-09-23T04:36:30;14.77;;;10.57;;
24617;SDS011;12762;51.730;5.356;2022-09-23T04:38:58;15.47;;;10.63;;
24617;SDS011;12762;51.730;5.356;2022-09-23T04:41:25;16.03;;;10.43;;
24617;SDS011;12762;51.730;5.356;2022-09-23T04:43:51;16.67;;;10.10;;
24617;SDS011;12762;51.730;5.356;2022-09-23T04:46:18;13.67;;;9.97;;
24617;SDS011;12762;51.730;5.356;2022-09-23T04:48:46;17.70;;;10.90;;
24617;SDS011;12762;51.730;5.356;2022-09-23T04:51:14;17.27;;;10.67;;
24617;SDS011;12762;51.730;5.356;2022-09-23T04:53:45;14.70;;;10.03;;
24617;SDS011;12762;51.730;5.356;2022-09-23T04:56:15;13.37;;;8.60;;
24617;SDS011;12762;51.730;5.356;2022-09-23T04:58:43;14.93;;;10.00;;
24617;SDS011;12762;51.730;5.356;2022-09-23T05:01:24;16.47;;;10.37;;
24617;SDS011;12762;51.730;5.356;2022-09-23T05:03:53;14.73;;;9.77;;
24617;SDS011;12762;51.730;5.356;2022-09-23T05:06:23;20.27;;;9.90;;
24617;SDS011;12762;51.730;5.356;2022-09-23T05:08:51;16.93;;;9.53;;
24617;SDS011;12762;51.730;5.356;2022-09-23T05:11:19;16.63;;;9.83;;
24617;SDS011;12762;51.730;5.356;2022-09-23T05:13:47;13.73;;;9.90;;
24617;SDS011;12762;51.730;5.356;2022-09-23T05:16:15;18.97;;;10.50;;
24617;SDS011;12762;51.730;5.356;2022-09-23T05:18:43;16.33;;;10.17;;
24617;SDS011;12762;51.730;5.356;2022-09-23T05:21:12;18.67;;;10.77;;
24617;SDS011;12762;51.730;5.356;2022-09-23T05:23:42;14.13;;;9.63;;
24617;SDS011;12762;51.730;5.356;2022-09-23T05:26:14;17.03;;;10.20;;
24617;SDS011;12762;51.730;5.356;2022-09-23T05:28:41;16.53;;;10.70;;
24617;SDS011;12762;51.730;5.356;2022-09-23T05:31:09;16.27;;;10.40;;
24617;SDS011;12762;51.730;5.356;2022-09-23T05:33:53;16.33;;;10.93;;
24617;SDS011;12762;51.730;5.356;2022-09-23T05:36:22;15.67;;;8.83;;
24617;SDS011;12762;51.730;5.356;2022-09-23T05:38:50;14.73;;;10.10;;
24617;SDS011;12762;51.730;5.356;2022-09-23T05:41:18;17.97;;;10.57;;
24617;SDS011;12762;51.730;5.356;2022-09-23T05:43:49;18.10;;;9.93;;
24617;SDS011;12762;51.730;5.356;2022-09-23T05:46:20;13.87;;;9.17;;
24617;SDS011;12762;51.730;5.356;2022-09-23T05:49:07;15.60;;;8.77;;
24617;SDS011;12762;51.730;5.356;2022-09-23T05:51:37;15.27;;;10.53;;
24617;SDS011;12762;51.730;5.356;2022-09-23T05:54:04;16.03;;;9.90;;
24617;SDS011;12762;51.730;5.356;2022-09-23T05:56:34;14.90;;;9.80;;
24617;SDS011;12762;51.730;5.356;2022-09-23T05:59:02;15.50;;;9.80;;
24617;SDS011;12762;51.730;5.356;2022-09-23T06:01:31;14.97;;;10.33;;
24617;SDS011;12762;51.730;5.356;2022-09-23T06:04:01;18.33;;;10.77;;
24617;SDS011;12762;51.730;5.356;2022-09-23T06:06:30;14.80;;;10.13;;
24617;SDS011;12762;51.730;5.356;2022-09-23T06:09:00;17.63;;;10.73;;
24617;SDS011;12762;51.730;5.356;2022-09-23T06:11:31;15.17;;;10.13;;
24617;SDS011;12762;51.730;5.356;2022-09-23T06:14:00;16.53;;;10.53;;
24617;SDS011;12762;51.730;5.356;2022-09-23T06:16:28;15.00;;;10.27;;
24617;SDS011;12762;51.730;5.356;2022-09-23T06:18:57;19.67;;;10.77;;
24617;SDS011;12762;51.730;5.356;2022-09-23T06:21:31;16.00;;;9.93;;
24617;SDS011;12762;51.730;5.356;2022-09-23T06:24:00;16.30;;;9.90;;
24617;SDS011;12762;51.730;5.356;2022-09-23T06:26:28;21.47;;;11.37;;
24617;SDS011;12762;51.730;5.356;2022-09-23T06:28:58;14.90;;;10.10;;
24617;SDS011;12762;51.730;5.356;2022-09-23T06:31:26;16.37;;;9.13;;
24617;SDS011;12762;51.730;5.356;2022-09-23T06:33:54;16.43;;;9.83;;
24617;SDS011;12762;51.730;5.356;2022-09-23T06:36:38;15.70;;;9.83;;
24617;SDS011;12762;51.730;5.356;2022-09-23T06:39:12;13.63;;;9.77;;
24617;SDS011;12762;51.730;5.356;2022-09-23T06:41:39;13.50;;;9.03;;
24617;SDS011;12762;51.730;5.356;2022-09-23T06:44:06;13.63;;;9.10;;
24617;SDS011;12762;51.730;5.356;2022-09-23T06:46:33;13.63;;;9.57;;
24617;SDS011;12762;51.730;5.356;2022-09-23T06:49:02;18.67;;;9.87;;
24617;SDS011;12762;51.730;5.356;2022-09-23T06:51:29;15.63;;;9.17;;
24617;SDS011;12762;51.730;5.356;2022-09-23T06:53:55;18.43;;;10.37;;
24617;SDS011;12762;51.730;5.356;2022-09-23T06:56:22;15.77;;;9.90;;
24617;SDS011;12762;51.730;5.356;2022-09-23T06:58:50;13.73;;;9.43;;
24617;SDS011;12762;51.730;5.356;2022-09-23T07:01:17;14.50;;;9.63;;
24617;SDS011;12762;51.730;5.356;2022-09-23T07:03:45;14.83;;;9.70;;
24617;SDS011;12762;51.730;5.356;2022-09-23T07:06:14;13.93;;;9.40;;
24617;SDS011;12762;51.730;5.356;2022-09-23T07:08:43;14.50;;;9.23;;
24617;SDS011;12762;51.730;5.356;2022-09-23T07:11:12;16.20;;;9.80;;
24617;SDS011;12762;51.730;5.356;2022-09-23T07:13:40;14.23;;;10.23;;
24617;SDS011;12762;51.730;5.356;2022-09-23T07:16:08;19.60;;;9.77;;
24617;SDS011;12762;51.730;5.356;2022-09-23T07:18:38;14.43;;;9.87;;
24617;SDS011;12762;51.730;5.356;2022-09-23T07:21:07;16.40;;;10.40;;
24617;SDS011;12762;51.730;5.356;2022-09-23T07:23:41;18.10;;;10.57;;
24617;SDS011;12762;51.730;5.356;2022-09-23T07:26:13;18.33;;;10.33;;
24617;SDS011;12762;51.730;5.356;2022-09-23T07:28:41;15.40;;;10.03;;
24617;SDS011;12762;51.730;5.356;2022-09-23T07:31:09;15.20;;;9.90;;
24617;SDS011;12762;51.730;5.356;2022-09-23T07:33:59;14.27;;;9.47;;
24617;SDS011;12762;51.730;5.356;2022-09-23T07:36:28;17.07;;;9.43;;
24617;SDS011;12762;51.730;5.356;2022-09-23T07:38:58;15.53;;;9.70;;
24617;SDS011;12762;51.730;5.356;2022-09-23T07:41:29;16.40;;;9.47;;
24617;SDS011;12762;51.730;5.356;2022-09-23T07:43:57;15.07;;;9.13;;
24617;SDS011;12762;51.730;5.356;2022-09-23T07:46:27;17.17;;;9.57;;
24617;SDS011;12762;51.730;5.356;2022-09-23T07:48:56;12.20;;;8.37;;
24617;SDS011;12762;51.730;5.356;2022-09-23T07:51:26;14.47;;;10.13;;
24617;SDS011;12762;51.730;5.356;2022-09-23T07:54:01;15.93;;;8.70;;
24617;SDS011;12762;51.730;5.356;2022-09-23T07:56:28;13.93;;;8.83;;
24617;SDS011;12762;51.730;5.356;2022-09-23T07:58:56;14.67;;;8.43;;
24617;SDS011;12762;51.730;5.356;2022-09-23T08:01:26;14.43;;;9.40;;
24617;SDS011;12762;51.730;5.356;2022-09-23T08:03:57;12.83;;;8.67;;
24617;SDS011;12762;51.730;5.356;2022-09-23T08:06:26;12.50;;;8.80;;
24617;SDS011;12762;51.730;5.356;2022-09-23T08:08:55;13.77;;;8.33;;
24617;SDS011;12762;51.730;5.356;2022-09-23T08:11:23;13.53;;;8.60;;
24617;SDS011;12762;51.730;5.356;2022-09-23T08:13:51;12.77;;;8.30;;
24617;SDS011;12762;51.730;5.356;2022-09-23T08:16:18;12.53;;;8.50;;
24617;SDS011;12762;51.730;5.356;2022-09-23T08:18:47;11.47;;;7.90;;
24617;SDS011;12762;51.730;5.356;2022-09-23T08:21:17;13.03;;;8.37;;
24617;SDS011;12762;51.730;5.356;2022-09-23T08:23:45;12.03;;;8.43;;
24617;SDS011;12762;51.730;5.356;2022-09-23T08:26:15;14.80;;;8.63;;
24617;SDS011;12762;51.730;5.356;2022-09-23T08:28:47;12.60;;;7.93;;
24617;SDS011;12762;51.730;5.356;2022-09-23T08:31:15;13.40;;;7.17;;
24617;SDS011;12762;51.730;5.356;2022-09-23T08:33:42;11.10;;;7.03;;
24617;SDS011;12762;51.730;5.356;2022-09-23T08:36:08;13.87;;;7.03;;
24617;SDS011;12762;51.730;5.356;2022-09-23T08:38:36;11.17;;;7.40;;
24617;SDS011;12762;51.730;5.356;2022-09-23T08:41:07;11.87;;;6.70;;
24617;SDS011;12762;51.730;5.356;2022-09-23T08:43:51;11.70;;;7.43;;
24617;SDS011;12762;51.730;5.356;2022-09-23T08:46:23;8.73;;;6.53;;
24617;SDS011;12762;51.730;5.356;2022-09-23T08:48:56;10.40;;;6.40;;
24617;SDS011;12762;51.730;5.356;2022-09-23T08:51:28;11.10;;;7.00;;
24617;SDS011;12762;51.730;5.356;2022-09-23T08:54:01;13.00;;;7.13;;
24617;SDS011;12762;51.730;5.356;2022-09-23T08:56:28;13.17;;;7.03;;
24617;SDS011;12762;51.730;5.356;2022-09-23T08:59:11;10.63;;;6.80;;
24617;SDS011;12762;51.730;5.356;2022-09-23T09:02:17;11.03;;;6.73;;
24617;SDS011;12762;51.730;5.356;2022-09-23T09:04:46;11.33;;;6.93;;
24617;SDS011;12762;51.730;5.356;2022-09-23T09:07:18;13.03;;;7.00;;
24617;SDS011;12762;51.730;5.356;2022-09-23T09:10:05;11.27;;;6.47;;
24617;SDS011;12762;51.730;5.356;2022-09-23T09:15:14;10.23;;;6.57;;
24617;SDS011;12762;51.730;5.356;2022-09-23T09:20:40;10.37;;;5.83;;
24617;SDS011;12762;51.730;5.356;2022-09-23T09:25:55;11.37;;;6.27;;
24617;SDS011;12762;51.730;5.356;2022-09-23T09:30:56;9.93;;;6.37;;
24617;SDS011;12762;51.730;5.356;2022-09-23T09:33:27;13.50;;;7.10;;
24617;SDS011;12762;51.730;5.356;2022-09-23T09:38:48;14.93;;;7.40;;
24617;SDS011;12762;51.730;5.356;2022-09-23T09:41:20;15.10;;;7.37;;
24617;SDS011;12762;51.730;5.356;2022-09-23T09:43:51;15.07;;;7.00;;
24617;SDS011;12762;51.730;5.356;2022-09-23T09:49:13;15.83;;;7.90;;
24617;SDS011;12762;51.730;5.356;2022-09-23T09:52:09;11.60;;;6.73;;
24617;SDS011;12762;51.730;5.356;2022-09-23T09:54:41;11.63;;;6.63;;
24617;SDS011;12762;51.730;5.356;2022-09-23T09:57:26;9.73;;;6.50;;
24617;SDS011;12762;51.730;5.356;2022-09-23T10:02:45;12.50;;;5.90;;
24617;SDS011;12762;51.730;5.356;2022-09-23T10:05:26;9.90;;;5.20;;
24617;SDS011;12762;51.730;5.356;2022-09-23T10:10:50;11.37;;;5.90;;
24617;SDS011;12762;51.730;5.356;2022-09-23T10:13:21;10.53;;;5.80;;
24617;SDS011;12762;51.730;5.356;2022-09-23T10:15:51;9.40;;;4.90;;
24617;SDS011;12762;51.730;5.356;2022-09-23T10:21:13;7.43;;;4.40;;
24617;SDS011;12762;51.730;5.356;2022-09-23T10:23:49;11.13;;;5.17;;
24617;SDS011;12762;51.730;5.356;2022-09-23T10:26:26;8.53;;;4.33;;
24617;SDS011;12762;51.730;5.356;2022-09-23T10:29:24;9.63;;;4.23;;
24617;SDS011;12762;51.730;5.356;2022-09-23T10:32:12;9.17;;;4.40;;
24617;SDS011;12762;51.730;5.356;2022-09-23T10:34:47;9.43;;;4.23;;
24617;SDS011;12762;51.730;5.356;2022-09-23T10:37:18;7.07;;;3.93;;
24617;SDS011;12762;51.730;5.356;2022-09-23T10:39:50;9.13;;;4.70;;
24617;SDS011;12762;51.730;5.356;2022-09-23T10:45:39;9.33;;;5.17;;
24617;SDS011;12762;51.730;5.356;2022-09-23T10:56:49;10.97;;;4.30;;
24617;SDS011;12762;51.730;5.356;2022-09-23T11:03:06;8.40;;;3.80;;
24617;SDS011;12762;51.730;5.356;2022-09-23T11:08:28;9.53;;;4.00;;
24617;SDS011;12762;51.730;5.356;2022-09-23T11:14:19;10.07;;;3.87;;
24617;SDS011;12762;51.730;5.356;2022-09-23T11:17:20;6.67;;;3.37;;
24617;SDS011;12762;51.730;5.356;2022-09-23T11:37:21;6.63;;;3.57;;
24617;SDS011;12762;51.730;5.356;2022-09-23T11:42:39;7.17;;;3.27;;
24617;SDS011;12762;51.730;5.356;2022-09-23T11:45:30;9.37;;;4.40;;
24617;SDS011;12762;51.730;5.356;2022-09-23T11:48:07;9.20;;;3.50;;
24617;SDS011;12762;51.730;5.356;2022-09-23T11:56:27;6.57;;;3.00;;
24617;SDS011;12762;51.730;5.356;2022-09-23T12:02:15;5.07;;;2.70;;
24617;SDS011;12762;51.730;5.356;2022-09-23T12:05:00;6.73;;;2.97;;
24617;SDS011;12762;51.730;5.356;2022-09-23T12:07:36;7.83;;;3.30;;
24617;SDS011;12762;51.730;5.356;2022-09-23T12:10:13;6.67;;;3.53;;
24617;SDS011;12762;51.730;5.356;2022-09-23T12:12:50;7.90;;;3.13;;
24617;SDS011;12762;51.730;5.356;2022-09-23T12:27:07;5.57;;;3.07;;
24617;SDS011;12762;51.730;5.356;2022-09-23T12:29:50;7.37;;;3.50;;
24617;SDS011;12762;51.730;5.356;2022-09-23T12:32:21;7.60;;;3.50;;
24617;SDS011;12762;51.730;5.356;2022-09-23T12:34:51;8.50;;;4.47;;
24617;SDS011;12762;51.730;5.356;2022-09-23T12:37:26;7.93;;;4.30;;
24617;SDS011;12762;51.730;5.356;2022-09-23T12:39:57;5.77;;;3.40;;
24617;SDS011;12762;51.730;5.356;2022-09-23T12:42:27;8.90;;;3.30;;
24617;SDS011;12762;51.730;5.356;2022-09-23T12:48:24;6.77;;;3.17;;
24617;SDS011;12762;51.730;5.356;2022-09-23T12:51:13;10.07;;;3.43;;
24617;SDS011;12762;51.730;5.356;2022-09-23T12:53:53;6.00;;;3.27;;
24617;SDS011;12762;51.730;5.356;2022-09-23T12:56:26;6.67;;;3.20;;
24617;SDS011;12762;51.730;5.356;2022-09-23T12:59:09;9.67;;;3.33;;
24617;SDS011;12762;51.730;5.356;2022-09-23T13:01:42;5.77;;;2.70;;
24617;SDS011;12762;51.730;5.356;2022-09-23T13:04:26;6.77;;;2.77;;
24617;SDS011;12762;51.730;5.356;2022-09-23T13:07:30;4.37;;;3.00;;
24617;SDS011;12762;51.730;5.356;2022-09-23T13:12:52;7.43;;;3.10;;
24617;SDS011;12762;51.730;5.356;2022-09-23T13:15:28;5.90;;;3.70;;
24617;SDS011;12762;51.730;5.356;2022-09-23T13:20:47;5.30;;;3.33;;
24617;SDS011;12762;51.730;5.356;2022-09-23T13:23:25;8.27;;;3.70;;
24617;SDS011;12762;51.730;5.356;2022-09-23T13:25:54;7.13;;;3.60;;
24617;SDS011;12762;51.730;5.356;2022-09-23T13:31:19;6.37;;;3.57;;
24617;SDS011;12762;51.730;5.356;2022-09-23T13:33:48;6.37;;;3.70;;
24617;SDS011;12762;51.730;5.356;2022-09-23T13:36:18;7.83;;;3.50;;
24617;SDS011;12762;51.730;5.356;2022-09-23T13:38:46;7.63;;;3.63;;
24617;SDS011;12762;51.730;5.356;2022-09-23T13:41:20;10.83;;;3.63;;
24617;SDS011;12762;51.730;5.356;2022-09-23T13:43:49;8.03;;;3.63;;
24617;SDS011;12762;51.730;5.356;2022-09-23T13:46:19;7.83;;;4.03;;
24617;SDS011;12762;51.730;5.356;2022-09-23T13:48:52;7.70;;;3.93;;
24617;SDS011;12762;51.730;5.356;2022-09-23T13:51:29;10.50;;;4.00;;
24617;SDS011;12762;51.730;5.356;2022-09-23T13:54:00;7.87;;;4.43;;
24617;SDS011;12762;51.730;5.356;2022-09-23T13:56:29;9.10;;;4.40;;
24617;SDS011;12762;51.730;5.356;2022-09-23T14:02:03;7.10;;;4.30;;
24617;SDS011;12762;51.730;5.356;2022-09-23T14:04:41;6.63;;;3.77;;
24617;SDS011;12762;51.730;5.356;2022-09-23T14:07:12;9.30;;;4.10;;
24617;SDS011;12762;51.730;5.356;2022-09-23T14:09:43;10.53;;;4.50;;
24617;SDS011;12762;51.730;5.356;2022-09-23T14:12:15;8.47;;;4.40;;
24617;SDS011;12762;51.730;5.356;2022-09-23T14:14:47;7.10;;;4.17;;
24617;SDS011;12762;51.730;5.356;2022-09-23T14:17:18;10.10;;;4.83;;
24617;SDS011;12762;51.730;5.356;2022-09-23T14:19:48;8.80;;;4.77;;
24617;SDS011;12762;51.730;5.356;2022-09-23T14:22:26;13.93;;;5.43;;
24617;SDS011;12762;51.730;5.356;2022-09-23T14:24:56;10.40;;;5.23;;
24617;SDS011;12762;51.730;5.356;2022-09-23T14:29:58;10.50;;;4.73;;
24617;SDS011;12762;51.730;5.356;2022-09-23T14:32:27;8.73;;;4.80;;
24617;SDS011;12762;51.730;5.356;2022-09-23T14:40:29;11.03;;;5.37;;
24617;SDS011;12762;51.730;5.356;2022-09-23T14:43:02;11.00;;;5.60;;
24617;SDS011;12762;51.730;5.356;2022-09-23T14:45:35;9.23;;;5.13;;
24617;SDS011;12762;51.730;5.356;2022-09-23T14:48:08;10.20;;;6.00;;
24617;SDS011;12762;51.730;5.356;2022-09-23T14:50:48;11.73;;;5.63;;
24617;SDS011;12762;51.730;5.356;2022-09-23T15:01:24;13.70;;;7.10;;
24617;SDS011;12762;51.730;5.356;2022-09-23T15:04:10;12.87;;;6.00;;
24617;SDS011;12762;51.730;5.356;2022-09-23T15:06:59;11.80;;;6.93;;
24617;SDS011;12762;51.730;5.356;2022-09-23T15:09:37;10.63;;;6.60;;
24617;SDS011;12762;51.730;5.356;2022-09-23T15:14:43;10.67;;;6.70;;
24617;SDS011;12762;51.730;5.356;2022-09-23T15:17:19;13.07;;;6.67;;
24617;SDS011;12762;51.730;5.356;2022-09-23T15:19:52;14.17;;;7.03;;
24617;SDS011;12762;51.730;5.356;2022-09-23T15:22:30;13.00;;;7.00;;
24617;SDS011;12762;51.730;5.356;2022-09-23T15:25:14;14.27;;;6.93;;
24617;SDS011;12762;51.730;5.356;2022-09-23T15:30:35;15.80;;;6.73;;
24617;SDS011;12762;51.730;5.356;2022-09-23T15:33:03;11.63;;;6.47;;
24617;SDS011;12762;51.730;5.356;2022-09-23T15:35:31;10.53;;;6.03;;
24617;SDS011;12762;51.730;5.356;2022-09-23T15:37:59;12.27;;;6.40;;
24617;SDS011;12762;51.730;5.356;2022-09-23T15:40:31;12.60;;;6.67;;
24617;SDS011;12762;51.730;5.356;2022-09-23T15:43:00;10.47;;;6.57;;
24617;SDS011;12762;51.730;5.356;2022-09-23T15:45:36;13.23;;;7.03;;
24617;SDS011;12762;51.730;5.356;2022-09-23T15:48:12;10.60;;;7.27;;
24617;SDS011;12762;51.730;5.356;2022-09-23T15:50:41;15.90;;;7.40;;
24617;SDS011;12762;51.730;5.356;2022-09-23T15:53:14;9.77;;;5.70;;
24617;SDS011;12762;51.730;5.356;2022-09-23T15:55:42;8.97;;;6.30;;
24617;SDS011;12762;51.730;5.356;2022-09-23T15:58:10;12.07;;;7.00;;
24617;SDS011;12762;51.730;5.356;2022-09-23T16:00:37;10.83;;;6.00;;
24617;SDS011;12762;51.730;5.356;2022-09-23T16:03:04;11.10;;;7.17;;
24617;SDS011;12762;51.730;5.356;2022-09-23T16:05:33;11.57;;;6.30;;
24617;SDS011;12762;51.730;5.356;2022-09-23T16:08:06;10.80;;;6.47;;
24617;SDS011;12762;51.730;5.356;2022-09-23T16:10:35;14.43;;;6.60;;
24617;SDS011;12762;51.730;5.356;2022-09-23T16:13:03;9.73;;;5.97;;
24617;SDS011;12762;51.730;5.356;2022-09-23T16:15:32;14.17;;;6.30;;
24617;SDS011;12762;51.730;5.356;2022-09-23T16:17:59;11.17;;;6.03;;
24617;SDS011;12762;51.730;5.356;2022-09-23T16:20:27;13.30;;;6.97;;
24617;SDS011;12762;51.730;5.356;2022-09-23T16:22:56;13.17;;;6.90;;
24617;SDS011;12762;51.730;5.356;2022-09-23T16:25:26;14.30;;;6.60;;
24617;SDS011;12762;51.730;5.356;2022-09-23T16:27:55;9.20;;;6.33;;
24617;SDS011;12762;51.730;5.356;2022-09-23T16:30:24;13.07;;;6.43;;
24617;SDS011;12762;51.730;5.356;2022-09-23T16:32:52;9.43;;;5.77;;
24617;SDS011;12762;51.730;5.356;2022-09-23T16:35:19;12.27;;;6.70;;
24617;SDS011;12762;51.730;5.356;2022-09-23T16:37:53;14.27;;;6.47;;
24617;SDS011;12762;51.730;5.356;2022-09-23T16:40:21;12.30;;;6.33;;
24617;SDS011;12762;51.730;5.356;2022-09-23T16:42:49;11.43;;;6.33;;
24617;SDS011;12762;51.730;5.356;2022-09-23T16:45:18;9.87;;;5.83;;
24617;SDS011;12762;51.730;5.356;2022-09-23T16:47:48;12.47;;;6.67;;
24617;SDS011;12762;51.730;5.356;2022-09-23T16:50:17;13.10;;;6.40;;
24617;SDS011;12762;51.730;5.356;2022-09-23T16:52:49;12.63;;;6.70;;
24617;SDS011;12762;51.730;5.356;2022-09-23T16:55:23;14.40;;;8.53;;
24617;SDS011;12762;51.730;5.356;2022-09-23T16:57:52;14.57;;;7.63;;
24617;SDS011;12762;51.730;5.356;2022-09-23T17:00:20;11.87;;;6.47;;
24617;SDS011;12762;51.730;5.356;2022-09-23T17:03:06;14.33;;;6.83;;
24617;SDS011;12762;51.730;5.356;2022-09-23T17:05:53;16.67;;;7.53;;
24617;SDS011;12762;51.730;5.356;2022-09-23T17:08:20;12.53;;;8.17;;
24617;SDS011;12762;51.730;5.356;2022-09-23T17:10:53;12.10;;;7.40;;
24617;SDS011;12762;51.730;5.356;2022-09-23T17:13:22;18.17;;;7.83;;
24617;SDS011;12762;51.730;5.356;2022-09-23T17:15:50;15.17;;;7.83;;
24617;SDS011;12762;51.730;5.356;2022-09-23T17:18:19;15.80;;;7.80;;
24617;SDS011;12762;51.730;5.356;2022-09-23T17:20:56;15.30;;;8.60;;
24617;SDS011;12762;51.730;5.356;2022-09-23T17:23:24;10.87;;;7.37;;
24617;SDS011;12762;51.730;5.356;2022-09-23T17:25:52;17.23;;;8.57;;
24617;SDS011;12762;51.730;5.356;2022-09-23T17:28:19;16.13;;;8.47;;
24617;SDS011;12762;51.730;5.356;2022-09-23T17:30:48;12.50;;;8.80;;
24617;SDS011;12762;51.730;5.356;2022-09-23T17:33:21;14.07;;;8.50;;
24617;SDS011;12762;51.730;5.356;2022-09-23T17:35:48;13.87;;;8.37;;
24617;SDS011;12762;51.730;5.356;2022-09-23T17:38:14;17.17;;;8.47;;
24617;SDS011;12762;51.730;5.356;2022-09-23T17:40:48;16.43;;;9.10;;
24617;SDS011;12762;51.730;5.356;2022-09-23T17:43:16;16.57;;;8.70;;